sensor_id;sensor_type;location;lat;lon;timestamp;P1;durP1;ratioP1;P2;durP2;ratioP2
21183;SDS011;18176;49.502;11.754;2022-12-10T00:03:45;50.27;;;26.13;;
21183;SDS011;18176;49.502;11.754;2022-12-10T00:07:46;34.07;;;18.90;;
21183;SDS011;18176;49.502;11.754;2022-12-10T00:11:49;31.83;;;17.00;;
21183;SDS011;18176;49.502;11.754;2022-12-10T00:15:49;37.07;;;19.20;;
21183;SDS011;18176;49.502;11.754;2022-12-10T00:19:49;29.40;;;16.73;;
21183;SDS011;18176;49.502;11.754;2022-12-10T00:23:50;31.07;;;16.47;;
21183;SDS011;18176;49.502;11.754;2022-12-10T00:27:52;30.07;;;17.50;;
21183;SDS011;18176;49.502;11.754;2022-12-10T00:31:52;30.80;;;17.80;;
21183;SDS011;18176;49.502;11.754;2022-12-10T00:35:52;36.87;;;19.27;;
21183;SDS011;18176;49.502;11.754;2022-12-10T00:39:53;34.03;;;18.17;;
21183;SDS011;18176;49.502;11.754;2022-12-10T00:43:55;33.83;;;18.47;;
21183;SDS011;18176;49.502;11.754;2022-12-10T00:47:56;36.77;;;19.27;;
21183;SDS011;18176;49.502;11.754;2022-12-10T00:51:56;37.00;;;18.53;;
21183;SDS011;18176;49.502;11.754;2022-12-10T00:55:59;32.60;;;18.53;;
21183;SDS011;18176;49.502;11.754;2022-12-10T01:00:03;37.63;;;19.50;;
21183;SDS011;18176;49.502;11.754;2022-12-10T01:04:06;36.83;;;19.57;;
21183;SDS011;18176;49.502;11.754;2022-12-10T01:08:09;37.03;;;19.77;;
21183;SDS011;18176;49.502;11.754;2022-12-10T01:12:09;35.87;;;19.93;;
21183;SDS011;18176;49.502;11.754;2022-12-10T01:16:13;39.80;;;20.33;;
21183;SDS011;18176;49.502;11.754;2022-12-10T01:20:16;37.90;;;20.37;;
21183;SDS011;18176;49.502;11.754;2022-12-10T01:24:17;44.43;;;20.33;;
21183;SDS011;18176;49.502;11.754;2022-12-10T01:28:17;36.77;;;19.97;;
21183;SDS011;18176;49.502;11.754;2022-12-10T01:32:20;38.80;;;20.60;;
21183;SDS011;18176;49.502;11.754;2022-12-10T01:36:21;34.13;;;19.33;;
21183;SDS011;18176;49.502;11.754;2022-12-10T01:40:25;35.27;;;18.47;;
21183;SDS011;18176;49.502;11.754;2022-12-10T01:49:10;34.47;;;18.13;;
21183;SDS011;18176;49.502;11.754;2022-12-10T01:53:14;32.03;;;17.33;;
21183;SDS011;18176;49.502;11.754;2022-12-10T01:57:15;37.97;;;18.70;;
21183;SDS011;18176;49.502;11.754;2022-12-10T02:01:21;35.53;;;19.30;;
21183;SDS011;18176;49.502;11.754;2022-12-10T02:05:35;38.30;;;19.63;;
21183;SDS011;18176;49.502;11.754;2022-12-10T02:09:42;31.80;;;18.00;;
21183;SDS011;18176;49.502;11.754;2022-12-10T02:13:51;34.17;;;18.20;;
21183;SDS011;18176;49.502;11.754;2022-12-10T02:18:01;33.20;;;17.83;;
21183;SDS011;18176;49.502;11.754;2022-12-10T02:22:13;32.80;;;17.97;;
21183;SDS011;18176;49.502;11.754;2022-12-10T02:26:20;34.07;;;18.13;;
21183;SDS011;18176;49.502;11.754;2022-12-10T02:30:31;32.87;;;18.43;;
21183;SDS011;18176;49.502;11.754;2022-12-10T02:34:37;33.40;;;18.73;;
21183;SDS011;18176;49.502;11.754;2022-12-10T02:38:46;32.50;;;17.60;;
21183;SDS011;18176;49.502;11.754;2022-12-10T02:42:51;34.53;;;18.50;;
21183;SDS011;18176;49.502;11.754;2022-12-10T02:46:56;38.07;;;20.03;;
21183;SDS011;18176;49.502;11.754;2022-12-10T02:51:04;35.10;;;18.97;;
21183;SDS011;18176;49.502;11.754;2022-12-10T02:55:08;34.47;;;18.53;;
21183;SDS011;18176;49.502;11.754;2022-12-10T02:59:14;36.80;;;20.03;;
21183;SDS011;18176;49.502;11.754;2022-12-10T03:03:31;39.23;;;20.20;;
21183;SDS011;18176;49.502;11.754;2022-12-10T03:07:44;33.93;;;18.83;;
21183;SDS011;18176;49.502;11.754;2022-12-10T03:11:52;34.90;;;19.30;;
21183;SDS011;18176;49.502;11.754;2022-12-10T03:16:02;37.70;;;20.90;;
21183;SDS011;18176;49.502;11.754;2022-12-10T03:20:08;32.70;;;18.87;;
21183;SDS011;18176;49.502;11.754;2022-12-10T03:24:12;38.10;;;19.97;;
21183;SDS011;18176;49.502;11.754;2022-12-10T03:28:15;34.93;;;19.60;;
21183;SDS011;18176;49.502;11.754;2022-12-10T03:32:19;33.57;;;18.27;;
21183;SDS011;18176;49.502;11.754;2022-12-10T03:36:24;37.53;;;19.23;;
21183;SDS011;18176;49.502;11.754;2022-12-10T03:40:28;33.97;;;18.77;;
21183;SDS011;18176;49.502;11.754;2022-12-10T03:44:29;34.93;;;18.93;;
21183;SDS011;18176;49.502;11.754;2022-12-10T03:48:30;34.33;;;19.60;;
21183;SDS011;18176;49.502;11.754;2022-12-10T03:52:33;38.87;;;20.33;;
21183;SDS011;18176;49.502;11.754;2022-12-10T03:56:35;36.63;;;19.80;;
21183;SDS011;18176;49.502;11.754;2022-12-10T04:00:35;35.50;;;20.43;;
21183;SDS011;18176;49.502;11.754;2022-12-10T04:04:35;34.17;;;19.03;;
21183;SDS011;18176;49.502;11.754;2022-12-10T04:08:38;35.87;;;19.70;;
21183;SDS011;18176;49.502;11.754;2022-12-10T04:12:38;33.63;;;19.60;;
21183;SDS011;18176;49.502;11.754;2022-12-10T04:16:38;37.90;;;20.43;;
21183;SDS011;18176;49.502;11.754;2022-12-10T04:20:37;33.37;;;18.57;;
21183;SDS011;18176;49.502;11.754;2022-12-10T04:24:52;34.00;;;18.93;;
21183;SDS011;18176;49.502;11.754;2022-12-10T04:29:17;35.83;;;18.73;;
21183;SDS011;18176;49.502;11.754;2022-12-10T04:33:21;32.70;;;17.80;;
21183;SDS011;18176;49.502;11.754;2022-12-10T04:37:22;34.43;;;19.67;;
21183;SDS011;18176;49.502;11.754;2022-12-10T04:41:26;35.43;;;18.83;;
21183;SDS011;18176;49.502;11.754;2022-12-10T04:45:26;32.87;;;18.37;;
21183;SDS011;18176;49.502;11.754;2022-12-10T04:49:27;33.03;;;18.60;;
21183;SDS011;18176;49.502;11.754;2022-12-10T04:53:27;33.67;;;18.37;;
21183;SDS011;18176;49.502;11.754;2022-12-10T04:57:30;33.63;;;18.83;;
21183;SDS011;18176;49.502;11.754;2022-12-10T05:01:30;31.90;;;18.50;;
21183;SDS011;18176;49.502;11.754;2022-12-10T05:05:33;32.87;;;18.47;;
21183;SDS011;18176;49.502;11.754;2022-12-10T05:09:33;33.27;;;18.93;;
21183;SDS011;18176;49.502;11.754;2022-12-10T05:13:36;34.17;;;19.30;;
21183;SDS011;18176;49.502;11.754;2022-12-10T05:17:38;35.20;;;19.63;;
21183;SDS011;18176;49.502;11.754;2022-12-10T05:21:38;36.80;;;19.70;;
21183;SDS011;18176;49.502;11.754;2022-12-10T05:25:57;35.83;;;19.53;;
21183;SDS011;18176;49.502;11.754;2022-12-10T05:30:01;35.10;;;19.60;;
21183;SDS011;18176;49.502;11.754;2022-12-10T05:34:02;35.53;;;20.20;;
21183;SDS011;18176;49.502;11.754;2022-12-10T05:38:04;36.20;;;19.53;;
21183;SDS011;18176;49.502;11.754;2022-12-10T05:42:06;33.93;;;18.80;;
21183;SDS011;18176;49.502;11.754;2022-12-10T05:46:10;36.80;;;19.70;;
21183;SDS011;18176;49.502;11.754;2022-12-10T05:50:13;37.70;;;19.47;;
21183;SDS011;18176;49.502;11.754;2022-12-10T05:54:14;37.90;;;19.83;;
21183;SDS011;18176;49.502;11.754;2022-12-10T05:58:14;35.47;;;19.90;;
21183;SDS011;18176;49.502;11.754;2022-12-10T06:02:17;33.47;;;19.50;;
21183;SDS011;18176;49.502;11.754;2022-12-10T06:06:20;32.50;;;18.57;;
21183;SDS011;18176;49.502;11.754;2022-12-10T06:10:22;35.00;;;19.33;;
21183;SDS011;18176;49.502;11.754;2022-12-10T06:14:22;34.77;;;19.53;;
21183;SDS011;18176;49.502;11.754;2022-12-10T06:18:25;37.27;;;20.00;;
21183;SDS011;18176;49.502;11.754;2022-12-10T06:22:25;36.57;;;20.10;;
21183;SDS011;18176;49.502;11.754;2022-12-10T06:26:25;36.37;;;19.23;;
21183;SDS011;18176;49.502;11.754;2022-12-10T06:30:25;35.70;;;20.27;;
21183;SDS011;18176;49.502;11.754;2022-12-10T06:34:28;34.63;;;19.37;;
21183;SDS011;18176;49.502;11.754;2022-12-10T06:38:28;34.37;;;19.30;;
21183;SDS011;18176;49.502;11.754;2022-12-10T06:42:28;31.03;;;17.60;;
21183;SDS011;18176;49.502;11.754;2022-12-10T06:46:29;31.33;;;17.60;;
21183;SDS011;18176;49.502;11.754;2022-12-10T06:50:31;35.17;;;19.40;;
21183;SDS011;18176;49.502;11.754;2022-12-10T06:54:32;32.43;;;18.50;;
21183;SDS011;18176;49.502;11.754;2022-12-10T06:58:33;33.60;;;18.97;;
21183;SDS011;18176;49.502;11.754;2022-12-10T07:02:36;34.77;;;19.20;;
21183;SDS011;18176;49.502;11.754;2022-12-10T07:06:39;37.60;;;19.80;;
21183;SDS011;18176;49.502;11.754;2022-12-10T07:10:39;37.30;;;21.13;;
21183;SDS011;18176;49.502;11.754;2022-12-10T07:14:40;38.40;;;22.13;;
21183;SDS011;18176;49.502;11.754;2022-12-10T07:18:40;44.47;;;23.57;;
21183;SDS011;18176;49.502;11.754;2022-12-10T07:22:50;39.80;;;21.40;;
21183;SDS011;18176;49.502;11.754;2022-12-10T07:26:50;37.27;;;21.50;;
21183;SDS011;18176;49.502;11.754;2022-12-10T07:30:51;35.33;;;20.20;;
21183;SDS011;18176;49.502;11.754;2022-12-10T07:34:51;36.43;;;20.77;;
21183;SDS011;18176;49.502;11.754;2022-12-10T07:38:54;36.70;;;21.27;;
21183;SDS011;18176;49.502;11.754;2022-12-10T07:42:55;36.97;;;20.90;;
21183;SDS011;18176;49.502;11.754;2022-12-10T07:46:56;34.53;;;20.10;;
21183;SDS011;18176;49.502;11.754;2022-12-10T07:50:57;37.43;;;20.53;;
21183;SDS011;18176;49.502;11.754;2022-12-10T07:55:00;34.10;;;19.63;;
21183;SDS011;18176;49.502;11.754;2022-12-10T07:59:01;36.00;;;19.87;;
21183;SDS011;18176;49.502;11.754;2022-12-10T08:03:01;37.43;;;21.80;;
21183;SDS011;18176;49.502;11.754;2022-12-10T08:07:01;39.10;;;20.80;;
21183;SDS011;18176;49.502;11.754;2022-12-10T08:11:04;39.93;;;21.80;;
21183;SDS011;18176;49.502;11.754;2022-12-10T08:15:06;47.87;;;26.07;;
21183;SDS011;18176;49.502;11.754;2022-12-10T08:19:08;42.43;;;23.30;;
21183;SDS011;18176;49.502;11.754;2022-12-10T08:23:16;37.87;;;21.47;;
21183;SDS011;18176;49.502;11.754;2022-12-10T08:27:20;39.53;;;22.57;;
21183;SDS011;18176;49.502;11.754;2022-12-10T08:31:20;41.60;;;22.57;;
21183;SDS011;18176;49.502;11.754;2022-12-10T08:35:22;37.93;;;20.93;;
21183;SDS011;18176;49.502;11.754;2022-12-10T08:39:22;40.37;;;22.57;;
21183;SDS011;18176;49.502;11.754;2022-12-10T08:43:25;39.37;;;22.60;;
21183;SDS011;18176;49.502;11.754;2022-12-10T08:47:25;38.33;;;22.33;;
21183;SDS011;18176;49.502;11.754;2022-12-10T08:51:26;37.73;;;22.37;;
21183;SDS011;18176;49.502;11.754;2022-12-10T08:55:26;37.63;;;21.47;;
21183;SDS011;18176;49.502;11.754;2022-12-10T08:59:29;35.93;;;20.17;;
21183;SDS011;18176;49.502;11.754;2022-12-10T09:03:29;34.33;;;21.10;;
21183;SDS011;18176;49.502;11.754;2022-12-10T09:07:30;35.57;;;20.17;;
21183;SDS011;18176;49.502;11.754;2022-12-10T09:11:31;37.40;;;21.07;;
21183;SDS011;18176;49.502;11.754;2022-12-10T09:15:35;36.60;;;21.53;;
21183;SDS011;18176;49.502;11.754;2022-12-10T09:19:36;38.40;;;21.43;;
21183;SDS011;18176;49.502;11.754;2022-12-10T09:23:36;39.67;;;21.53;;
21183;SDS011;18176;49.502;11.754;2022-12-10T09:27:36;39.30;;;21.80;;
21183;SDS011;18176;49.502;11.754;2022-12-10T09:31:39;34.63;;;20.27;;
21183;SDS011;18176;49.502;11.754;2022-12-10T09:35:40;37.03;;;21.17;;
21183;SDS011;18176;49.502;11.754;2022-12-10T09:39:40;35.97;;;21.10;;
21183;SDS011;18176;49.502;11.754;2022-12-10T09:43:43;37.57;;;20.60;;
21183;SDS011;18176;49.502;11.754;2022-12-10T09:47:54;31.93;;;19.87;;
21183;SDS011;18176;49.502;11.754;2022-12-10T09:52:04;32.43;;;19.30;;
21183;SDS011;18176;49.502;11.754;2022-12-10T09:56:11;34.07;;;19.57;;
21183;SDS011;18176;49.502;11.754;2022-12-10T10:00:21;33.07;;;19.07;;
21183;SDS011;18176;49.502;11.754;2022-12-10T10:04:30;33.13;;;20.37;;
21183;SDS011;18176;49.502;11.754;2022-12-10T10:08:31;36.23;;;20.00;;
21183;SDS011;18176;49.502;11.754;2022-12-10T10:12:37;31.93;;;18.83;;
21183;SDS011;18176;49.502;11.754;2022-12-10T10:16:42;34.67;;;20.33;;
21183;SDS011;18176;49.502;11.754;2022-12-10T10:20:49;34.20;;;20.20;;
21183;SDS011;18176;49.502;11.754;2022-12-10T10:24:50;34.43;;;20.20;;
21183;SDS011;18176;49.502;11.754;2022-12-10T10:28:51;29.30;;;18.43;;
21183;SDS011;18176;49.502;11.754;2022-12-10T10:32:57;32.90;;;19.20;;
21183;SDS011;18176;49.502;11.754;2022-12-10T10:37:15;31.57;;;18.70;;
21183;SDS011;18176;49.502;11.754;2022-12-10T10:41:23;29.90;;;18.27;;
21183;SDS011;18176;49.502;11.754;2022-12-10T10:45:30;29.07;;;18.00;;
21183;SDS011;18176;49.502;11.754;2022-12-10T10:49:39;30.00;;;18.37;;
21183;SDS011;18176;49.502;11.754;2022-12-10T10:53:47;33.27;;;19.87;;
21183;SDS011;18176;49.502;11.754;2022-12-10T10:57:49;31.93;;;19.00;;
21183;SDS011;18176;49.502;11.754;2022-12-10T11:01:52;33.03;;;19.07;;
21183;SDS011;18176;49.502;11.754;2022-12-10T11:05:57;34.87;;;20.13;;
21183;SDS011;18176;49.502;11.754;2022-12-10T11:10:01;33.60;;;20.03;;
21183;SDS011;18176;49.502;11.754;2022-12-10T11:14:13;31.67;;;19.63;;
21183;SDS011;18176;49.502;11.754;2022-12-10T11:18:29;34.87;;;20.17;;
21183;SDS011;18176;49.502;11.754;2022-12-10T11:22:33;32.80;;;19.80;;
21183;SDS011;18176;49.502;11.754;2022-12-10T11:26:42;31.20;;;19.27;;
21183;SDS011;18176;49.502;11.754;2022-12-10T11:31:08;32.40;;;19.10;;
21183;SDS011;18176;49.502;11.754;2022-12-10T11:35:25;34.23;;;19.33;;
21183;SDS011;18176;49.502;11.754;2022-12-10T11:44:31;30.87;;;18.90;;
21183;SDS011;18176;49.502;11.754;2022-12-10T11:48:55;38.27;;;20.33;;
21183;SDS011;18176;49.502;11.754;2022-12-10T11:53:26;32.77;;;19.50;;
21183;SDS011;18176;49.502;11.754;2022-12-10T11:57:53;31.03;;;18.23;;
21183;SDS011;18176;49.502;11.754;2022-12-10T12:02:24;30.60;;;18.87;;
21183;SDS011;18176;49.502;11.754;2022-12-10T12:07:13;34.30;;;20.40;;
21183;SDS011;18176;49.502;11.754;2022-12-10T12:11:46;34.97;;;19.87;;
21183;SDS011;18176;49.502;11.754;2022-12-10T12:16:05;32.23;;;18.57;;
21183;SDS011;18176;49.502;11.754;2022-12-10T12:20:17;34.20;;;18.60;;
21183;SDS011;18176;49.502;11.754;2022-12-10T12:24:25;31.13;;;18.23;;
21183;SDS011;18176;49.502;11.754;2022-12-10T12:28:35;28.83;;;17.63;;
21183;SDS011;18176;49.502;11.754;2022-12-10T12:32:45;30.83;;;18.30;;
21183;SDS011;18176;49.502;11.754;2022-12-10T12:36:56;34.17;;;18.40;;
21183;SDS011;18176;49.502;11.754;2022-12-10T12:40:59;34.47;;;18.53;;
21183;SDS011;18176;49.502;11.754;2022-12-10T12:45:08;30.97;;;17.83;;
21183;SDS011;18176;49.502;11.754;2022-12-10T12:49:16;35.77;;;19.03;;
21183;SDS011;18176;49.502;11.754;2022-12-10T12:53:26;34.23;;;19.77;;
21183;SDS011;18176;49.502;11.754;2022-12-10T12:57:33;36.70;;;19.83;;
21183;SDS011;18176;49.502;11.754;2022-12-10T13:01:47;33.50;;;19.33;;
21183;SDS011;18176;49.502;11.754;2022-12-10T13:05:53;32.17;;;19.10;;
21183;SDS011;18176;49.502;11.754;2022-12-10T13:10:09;31.63;;;18.50;;
21183;SDS011;18176;49.502;11.754;2022-12-10T13:14:29;33.37;;;18.20;;
21183;SDS011;18176;49.502;11.754;2022-12-10T13:18:37;32.33;;;18.27;;
21183;SDS011;18176;49.502;11.754;2022-12-10T13:22:42;34.00;;;18.90;;
21183;SDS011;18176;49.502;11.754;2022-12-10T13:27:14;33.50;;;19.20;;
21183;SDS011;18176;49.502;11.754;2022-12-10T13:31:22;32.40;;;19.27;;
21183;SDS011;18176;49.502;11.754;2022-12-10T13:35:41;30.17;;;18.07;;
21183;SDS011;18176;49.502;11.754;2022-12-10T13:39:53;32.77;;;18.97;;
21183;SDS011;18176;49.502;11.754;2022-12-10T13:44:24;30.27;;;17.93;;
21183;SDS011;18176;49.502;11.754;2022-12-10T13:48:35;39.97;;;22.60;;
21183;SDS011;18176;49.502;11.754;2022-12-10T13:52:39;32.70;;;19.93;;
21183;SDS011;18176;49.502;11.754;2022-12-10T13:56:58;34.57;;;20.63;;
21183;SDS011;18176;49.502;11.754;2022-12-10T14:01:20;31.17;;;19.30;;
21183;SDS011;18176;49.502;11.754;2022-12-10T14:05:39;42.43;;;22.63;;
21183;SDS011;18176;49.502;11.754;2022-12-10T14:10:08;35.00;;;19.83;;
21183;SDS011;18176;49.502;11.754;2022-12-10T14:14:17;39.40;;;21.70;;
21183;SDS011;18176;49.502;11.754;2022-12-10T14:18:28;37.03;;;21.67;;
21183;SDS011;18176;49.502;11.754;2022-12-10T14:22:30;34.47;;;20.07;;
21183;SDS011;18176;49.502;11.754;2022-12-10T14:26:36;40.13;;;22.30;;
21183;SDS011;18176;49.502;11.754;2022-12-10T14:30:37;37.70;;;21.87;;
21183;SDS011;18176;49.502;11.754;2022-12-10T14:34:51;36.30;;;20.80;;
21183;SDS011;18176;49.502;11.754;2022-12-10T14:38:58;34.73;;;20.70;;
21183;SDS011;18176;49.502;11.754;2022-12-10T14:43:02;38.83;;;21.43;;
21183;SDS011;18176;49.502;11.754;2022-12-10T14:47:11;41.67;;;24.27;;
21183;SDS011;18176;49.502;11.754;2022-12-10T14:51:18;35.20;;;21.97;;
21183;SDS011;18176;49.502;11.754;2022-12-10T14:55:22;39.70;;;22.60;;
21183;SDS011;18176;49.502;11.754;2022-12-10T14:59:25;38.33;;;21.93;;
21183;SDS011;18176;49.502;11.754;2022-12-10T15:03:34;45.50;;;27.03;;
21183;SDS011;18176;49.502;11.754;2022-12-10T15:07:47;35.30;;;21.53;;
21183;SDS011;18176;49.502;11.754;2022-12-10T15:11:53;40.47;;;22.07;;
21183;SDS011;18176;49.502;11.754;2022-12-10T15:15:55;38.57;;;21.23;;
21183;SDS011;18176;49.502;11.754;2022-12-10T15:19:55;34.47;;;20.27;;
21183;SDS011;18176;49.502;11.754;2022-12-10T15:24:09;35.03;;;20.33;;
21183;SDS011;18176;49.502;11.754;2022-12-10T15:28:24;39.07;;;22.33;;
21183;SDS011;18176;49.502;11.754;2022-12-10T15:32:27;37.57;;;20.80;;
21183;SDS011;18176;49.502;11.754;2022-12-10T15:36:32;39.60;;;23.17;;
21183;SDS011;18176;49.502;11.754;2022-12-10T15:40:39;50.47;;;27.57;;
21183;SDS011;18176;49.502;11.754;2022-12-10T15:44:41;44.30;;;23.73;;
21183;SDS011;18176;49.502;11.754;2022-12-10T15:48:45;46.03;;;25.27;;
21183;SDS011;18176;49.502;11.754;2022-12-10T15:52:45;47.47;;;24.70;;
21183;SDS011;18176;49.502;11.754;2022-12-10T15:56:49;38.90;;;21.97;;
21183;SDS011;18176;49.502;11.754;2022-12-10T16:00:49;43.33;;;22.80;;
21183;SDS011;18176;49.502;11.754;2022-12-10T16:04:50;39.03;;;21.37;;
21183;SDS011;18176;49.502;11.754;2022-12-10T16:08:50;40.33;;;21.47;;
21183;SDS011;18176;49.502;11.754;2022-12-10T16:12:55;39.10;;;21.17;;
21183;SDS011;18176;49.502;11.754;2022-12-10T16:17:00;39.70;;;21.00;;
21183;SDS011;18176;49.502;11.754;2022-12-10T16:21:00;38.60;;;20.27;;
21183;SDS011;18176;49.502;11.754;2022-12-10T16:25:02;41.47;;;21.13;;
21183;SDS011;18176;49.502;11.754;2022-12-10T16:29:07;39.50;;;20.57;;
21183;SDS011;18176;49.502;11.754;2022-12-10T16:33:08;40.17;;;21.53;;
21183;SDS011;18176;49.502;11.754;2022-12-10T16:37:09;35.93;;;18.83;;
21183;SDS011;18176;49.502;11.754;2022-12-10T16:41:12;36.77;;;18.57;;
21183;SDS011;18176;49.502;11.754;2022-12-10T16:45:20;30.50;;;17.40;;
21183;SDS011;18176;49.502;11.754;2022-12-10T16:49:24;29.13;;;15.63;;
21183;SDS011;18176;49.502;11.754;2022-12-10T16:53:26;30.83;;;16.03;;
21183;SDS011;18176;49.502;11.754;2022-12-10T16:57:32;29.13;;;15.20;;
21183;SDS011;18176;49.502;11.754;2022-12-10T17:01:35;24.60;;;13.90;;
21183;SDS011;18176;49.502;11.754;2022-12-10T17:05:36;27.00;;;14.40;;
21183;SDS011;18176;49.502;11.754;2022-12-10T17:09:40;25.53;;;13.33;;
21183;SDS011;18176;49.502;11.754;2022-12-10T17:13:40;27.20;;;13.50;;
21183;SDS011;18176;49.502;11.754;2022-12-10T17:17:47;28.73;;;15.30;;
21183;SDS011;18176;49.502;11.754;2022-12-10T17:21:47;26.43;;;13.83;;
21183;SDS011;18176;49.502;11.754;2022-12-10T17:25:47;21.83;;;11.77;;
21183;SDS011;18176;49.502;11.754;2022-12-10T17:29:48;21.50;;;12.17;;
21183;SDS011;18176;49.502;11.754;2022-12-10T17:33:55;19.87;;;10.33;;
21183;SDS011;18176;49.502;11.754;2022-12-10T17:37:56;20.73;;;11.23;;
21183;SDS011;18176;49.502;11.754;2022-12-10T17:41:56;18.73;;;10.97;;
21183;SDS011;18176;49.502;11.754;2022-12-10T17:45:57;21.27;;;11.57;;
21183;SDS011;18176;49.502;11.754;2022-12-10T17:50:01;24.50;;;12.47;;
21183;SDS011;18176;49.502;11.754;2022-12-10T17:54:04;21.23;;;11.87;;
21183;SDS011;18176;49.502;11.754;2022-12-10T17:58:04;22.70;;;11.40;;
21183;SDS011;18176;49.502;11.754;2022-12-10T18:02:04;20.77;;;11.87;;
21183;SDS011;18176;49.502;11.754;2022-12-10T18:06:11;19.13;;;10.73;;
21183;SDS011;18176;49.502;11.754;2022-12-10T18:10:17;17.77;;;10.57;;
21183;SDS011;18176;49.502;11.754;2022-12-10T18:14:19;19.30;;;10.57;;
21183;SDS011;18176;49.502;11.754;2022-12-10T18:18:20;20.23;;;10.93;;
21183;SDS011;18176;49.502;11.754;2022-12-10T18:22:23;21.27;;;11.37;;
21183;SDS011;18176;49.502;11.754;2022-12-10T18:26:24;19.13;;;11.23;;
21183;SDS011;18176;49.502;11.754;2022-12-10T18:30:25;18.03;;;10.77;;
21183;SDS011;18176;49.502;11.754;2022-12-10T18:34:27;18.93;;;10.77;;
21183;SDS011;18176;49.502;11.754;2022-12-10T18:38:30;24.40;;;14.27;;
21183;SDS011;18176;49.502;11.754;2022-12-10T18:42:30;19.50;;;10.97;;
21183;SDS011;18176;49.502;11.754;2022-12-10T18:46:31;19.90;;;11.47;;
21183;SDS011;18176;49.502;11.754;2022-12-10T18:50:35;19.70;;;12.20;;
21183;SDS011;18176;49.502;11.754;2022-12-10T18:54:38;20.50;;;12.03;;
21183;SDS011;18176;49.502;11.754;2022-12-10T18:58:39;18.40;;;11.87;;
21183;SDS011;18176;49.502;11.754;2022-12-10T19:02:39;17.17;;;9.93;;
21183;SDS011;18176;49.502;11.754;2022-12-10T19:06:39;17.00;;;10.60;;
21183;SDS011;18176;49.502;11.754;2022-12-10T19:10:43;19.97;;;10.43;;
21183;SDS011;18176;49.502;11.754;2022-12-10T19:14:43;21.83;;;12.97;;
21183;SDS011;18176;49.502;11.754;2022-12-10T19:18:43;21.57;;;11.87;;
21183;SDS011;18176;49.502;11.754;2022-12-10T19:22:44;19.50;;;10.93;;
21183;SDS011;18176;49.502;11.754;2022-12-10T19:26:47;20.00;;;11.23;;
21183;SDS011;18176;49.502;11.754;2022-12-10T19:30:48;21.90;;;12.10;;
21183;SDS011;18176;49.502;11.754;2022-12-10T19:34:50;24.90;;;12.83;;
21183;SDS011;18176;49.502;11.754;2022-12-10T19:38:50;23.07;;;12.90;;
21183;SDS011;18176;49.502;11.754;2022-12-10T19:42:54;26.33;;;12.60;;
21183;SDS011;18176;49.502;11.754;2022-12-10T19:46:55;23.57;;;12.83;;
21183;SDS011;18176;49.502;11.754;2022-12-10T19:50:56;26.03;;;13.47;;
21183;SDS011;18176;49.502;11.754;2022-12-10T19:54:56;23.33;;;12.97;;
21183;SDS011;18176;49.502;11.754;2022-12-10T19:59:00;26.70;;;15.17;;
21183;SDS011;18176;49.502;11.754;2022-12-10T20:03:09;25.23;;;13.20;;
21183;SDS011;18176;49.502;11.754;2022-12-10T20:07:10;26.63;;;14.60;;
21183;SDS011;18176;49.502;11.754;2022-12-10T20:11:10;30.20;;;15.47;;
21183;SDS011;18176;49.502;11.754;2022-12-10T20:15:14;24.00;;;13.00;;
21183;SDS011;18176;49.502;11.754;2022-12-10T20:19:15;23.87;;;13.07;;
21183;SDS011;18176;49.502;11.754;2022-12-10T20:23:18;22.47;;;12.97;;
21183;SDS011;18176;49.502;11.754;2022-12-10T20:27:19;24.80;;;13.10;;
21183;SDS011;18176;49.502;11.754;2022-12-10T20:31:21;24.27;;;13.10;;
21183;SDS011;18176;49.502;11.754;2022-12-10T20:35:22;25.93;;;14.30;;
21183;SDS011;18176;49.502;11.754;2022-12-10T20:39:27;26.53;;;14.10;;
21183;SDS011;18176;49.502;11.754;2022-12-10T20:43:30;26.47;;;14.57;;
21183;SDS011;18176;49.502;11.754;2022-12-10T20:47:34;25.80;;;14.63;;
21183;SDS011;18176;49.502;11.754;2022-12-10T20:51:35;27.20;;;14.67;;
21183;SDS011;18176;49.502;11.754;2022-12-10T20:55:35;24.60;;;13.97;;
21183;SDS011;18176;49.502;11.754;2022-12-10T20:59:36;27.70;;;14.63;;
21183;SDS011;18176;49.502;11.754;2022-12-10T21:03:39;26.57;;;14.67;;
21183;SDS011;18176;49.502;11.754;2022-12-10T21:07:39;31.10;;;16.33;;
21183;SDS011;18176;49.502;11.754;2022-12-10T21:11:41;31.73;;;16.53;;
21183;SDS011;18176;49.502;11.754;2022-12-10T21:15:42;27.33;;;15.60;;
21183;SDS011;18176;49.502;11.754;2022-12-10T21:19:45;26.40;;;14.80;;
21183;SDS011;18176;49.502;11.754;2022-12-10T21:23:46;29.90;;;15.23;;
21183;SDS011;18176;49.502;11.754;2022-12-10T21:27:46;25.97;;;14.70;;
21183;SDS011;18176;49.502;11.754;2022-12-10T21:31:46;22.53;;;13.17;;
21183;SDS011;18176;49.502;11.754;2022-12-10T21:35:49;26.33;;;14.07;;
21183;SDS011;18176;49.502;11.754;2022-12-10T21:39:50;26.17;;;12.60;;
21183;SDS011;18176;49.502;11.754;2022-12-10T21:43:51;25.33;;;13.43;;
21183;SDS011;18176;49.502;11.754;2022-12-10T21:47:52;22.80;;;12.63;;
21183;SDS011;18176;49.502;11.754;2022-12-10T21:51:54;22.47;;;12.70;;
21183;SDS011;18176;49.502;11.754;2022-12-10T21:55:55;28.50;;;15.10;;
21183;SDS011;18176;49.502;11.754;2022-12-10T21:59:55;25.20;;;14.67;;
21183;SDS011;18176;49.502;11.754;2022-12-10T22:03:56;27.97;;;14.73;;
21183;SDS011;18176;49.502;11.754;2022-12-10T22:07:59;22.67;;;12.90;;
21183;SDS011;18176;49.502;11.754;2022-12-10T22:11:59;29.90;;;15.43;;
21183;SDS011;18176;49.502;11.754;2022-12-10T22:15:59;26.60;;;14.37;;
21183;SDS011;18176;49.502;11.754;2022-12-10T22:20:00;25.57;;;13.87;;
21183;SDS011;18176;49.502;11.754;2022-12-10T22:24:04;28.67;;;14.73;;
21183;SDS011;18176;49.502;11.754;2022-12-10T22:28:05;26.67;;;14.37;;
21183;SDS011;18176;49.502;11.754;2022-12-10T22:32:05;31.00;;;16.73;;
21183;SDS011;18176;49.502;11.754;2022-12-10T22:36:05;31.50;;;16.17;;
21183;SDS011;18176;49.502;11.754;2022-12-10T22:40:10;31.47;;;15.77;;
21183;SDS011;18176;49.502;11.754;2022-12-10T22:44:12;27.43;;;14.23;;
21183;SDS011;18176;49.502;11.754;2022-12-10T22:48:12;26.93;;;13.50;;
21183;SDS011;18176;49.502;11.754;2022-12-10T22:52:12;23.47;;;12.77;;
21183;SDS011;18176;49.502;11.754;2022-12-10T22:56:15;23.73;;;13.37;;
21183;SDS011;18176;49.502;11.754;2022-12-10T23:00:16;24.70;;;13.40;;
21183;SDS011;18176;49.502;11.754;2022-12-10T23:04:19;22.33;;;12.73;;
21183;SDS011;18176;49.502;11.754;2022-12-10T23:08:20;21.90;;;11.97;;
21183;SDS011;18176;49.502;11.754;2022-12-10T23:12:26;22.20;;;13.03;;
21183;SDS011;18176;49.502;11.754;2022-12-10T23:16:39;22.73;;;13.47;;
21183;SDS011;18176;49.502;11.754;2022-12-10T23:20:39;23.70;;;13.37;;
21183;SDS011;18176;49.502;11.754;2022-12-10T23:24:45;21.60;;;11.40;;
21183;SDS011;18176;49.502;11.754;2022-12-10T23:28:48;22.57;;;12.60;;
21183;SDS011;18176;49.502;11.754;2022-12-10T23:32:48;21.40;;;12.33;;
21183;SDS011;18176;49.502;11.754;2022-12-10T23:36:49;22.07;;;12.03;;
21183;SDS011;18176;49.502;11.754;2022-12-10T23:40:49;22.87;;;12.60;;